ESGJ/JKG METAR and TAF weather

Enter ICAO airport designator
Station Type Date Time Source
ESGJ METAR 2020/10/29 16:50 UTC NOAA

ESGJ 291650Z AUTO 00000KT 0100 R01/0800N R19/1100N FG NCD 05/05 Q1006


Station Type Date Time Source
ESGJ Decoded METAR 2020/10/29 16:50 UTC NOAA

Jonkoping Flygplats, Sweden (ESGJ) 57-46N 014-05E 232M
Oct 29, 2020 - 12:50 PM EDT / 2020.10.29 1650 UTC
Wind: Calm:0
Visibility: less than 1 mile:0
Weather: fog
Temperature: 41 F (5 C)
Dew Point: 41 F (5 C)
Relative Humidity: 100%
Pressure (altimeter): 29.71 in. Hg (1006 hPa)
ob: ESGJ 291650Z AUTO 00000KT 0100 R01/0800N R19/1100N FG NCD 05/05 Q1006
cycle: 17

Station Type Date Time Source
ESGJ TAF 2015/05/01 23:06 UTC NOAA

TAF TAF ESGJ 302359Z 3023/0101 CNL

Example: see airport list